Fayville, Massachusetts
Current Conditions -  °F | °C
As of 4:56 AM on Monday 26 Jan 2015 (Local Time) from KBED Reporting Station
Clear Clear  
Wind Chill: -1°   Ceiling: Unl
Heat Index:   Visibility: 10mi
Dew Point: -4°   Wind: 6mph
Humidity: 56%   Direction: 10°N
Pressure: 30.11"   Gusts: NA
Location:  42.29°N, 71.5°W
Report Text: KBED 260956Z AUTO 01005KT 10SM CLR M13/M20 A3011 RMK AO2 SLP215 T11281200 TSNO
Loading
Personal Weather Stations






























Interactive Weather Map New forecast layout! Learn more

10-Day Weather Forecast

Advertisements
Track Severe Weather on mobile